SEGS

Details ICAO SEGS (GPS)
Name Galapagos - Baltra
Region Equador
Timezone Pacific/Galapagos (UTC-6.0)
Plans Departing 67
Arriving 97
Stats Elevation 207 ft / 63 m (AMSL)
Location -0.454002° -90.265800°
Runways 1
Magnetic Variation 3.296° E
Sunrise 2019-05-24 11:56:28 UTC / 2019-05-24 05:56:28 Local
Sunset 2019-05-25 00:02:13 UTC / 2019-05-24 18:02:13 Local
Advertisement - Login to hide

Runways

ID Width Length Bearing (true/mag) Surface Threshold Overrun Markings Lighting
14 115 ft / 35 m 8,179 ft / 2,493 m 144.02° / 140.72° ASPHALT 0 ft / 0 m 331 ft / 101 m PREC-APP
32 115 ft / 35 m 8,179 ft / 2,493 m 324.02° / 320.72° ASPHALT 0 ft / 0 m 354 ft / 108 m PREC-APP

Approach Navaids

Runway Type Ident Frequency Range Bearing (true/mag) Slope Elevation
14 LOC-ILS ILB 110.90 MHz 18 nm / 33 km 144.01° / 140.71° - 207 ft / 63 m (AMSL)
14 GS ILB 110.90 MHz 10 nm / 19 km 144.02° / 140.73° 3.00° 207 ft / 63 m (AMSL)

Map

Weather


0- 5 10 15 20 25 30 35+ Temperature / °C

Clouds and Precipitation
Forecast for 2019-05-24 18:00 UTC. Updated 8 minutes ago

Ground ~20,000 ft ~40,000 ft Winds

METAR

SEGS 241500Z 12011KT 9999 FEW020 27/22 Q1011 A2987

TAF

Not found

Frequencies

Tower 122.20 MHz Baltra Tower
Warning: Do not use this data for real-world aviation or navigation. No guarantee of current accuracy is given.